Admire, Kansas
Current Conditions -  °F | °C
As of 11:53 AM on Saturday 20 Dec 2014 (Local Time) from KEMP Reporting Station
Clear Clear  
Wind Chill: 35°   Ceiling: Unl
Heat Index: 43°   Visibility: 10mi
Dew Point: 37°   Wind: 17mph
Humidity: 80%   Direction: 210°SSW
Pressure: 30.14"   Gusts: NA
Location:  38.64°N, 96.1°W
Report Text: KEMP 201753Z AUTO 21015KT 10SM CLR 06/03 A3014 RMK AO2 SLP215 T00610028 10067 21011 58008
Loading
Personal Weather Stations






























Interactive Weather Map New forecast layout! Learn more

10-Day Weather Forecast

Advertisements
Track Severe Weather on mobile